createdAt,value
2022-09-04T00:01:45.355Z,100368.09
2022-09-04T00:07:01.578Z,100369.03
2022-09-04T00:12:08.746Z,100378.28
2022-09-04T00:17:20.903Z,100372.94
2022-09-04T00:22:34.461Z,100372.22
2022-09-04T00:27:44.738Z,100378.06
2022-09-04T00:32:55.852Z,100375.91
2022-09-04T00:38:10.317Z,100381.66
2022-09-04T00:43:50.357Z,100383.53
2022-09-04T00:49:22.768Z,100395.72
2022-09-04T00:54:42.223Z,100391.94
2022-09-04T01:00:04.713Z,100391.47
2022-09-04T01:05:19.602Z,100388.75
2022-09-04T01:10:36.663Z,100387.88
2022-09-04T01:15:45.209Z,100395.63
2022-09-04T01:21:14.496Z,100405.75
2022-09-04T01:26:25.057Z,100403.03
2022-09-04T01:31:37.532Z,100399.81
2022-09-04T01:36:48.436Z,100400.59
2022-09-04T01:42:01.864Z,100402.78
2022-09-04T01:47:12.420Z,100404.00
2022-09-04T01:52:33.356Z,100405.81
2022-09-04T01:57:47.261Z,100408.19
2022-09-04T02:03:02.271Z,100407.53
2022-09-04T02:08:21.906Z,100411.41
2022-09-04T02:13:40.278Z,100411.72
2022-09-04T02:18:55.872Z,100413.81
2022-09-04T02:24:14.407Z,100417.75
2022-09-04T02:29:26.670Z,100422.41
2022-09-04T02:34:41.030Z,100415.22
2022-09-04T02:39:56.224Z,100418.53
2022-09-04T02:45:12.395Z,100408.09
2022-09-04T02:50:33.917Z,100415.25
2022-09-04T02:55:54.798Z,100419.78
2022-09-04T03:01:08.020Z,100421.72
2022-09-04T03:06:13.484Z,100423.16
2022-09-04T03:11:22.001Z,100430.50
2022-09-04T03:16:33.597Z,100438.31
2022-09-04T03:21:42.201Z,100436.63
2022-09-04T03:26:50.776Z,100435.22
2022-09-04T03:32:15.390Z,100436.75
2022-09-04T03:37:45.397Z,100450.09
2022-09-04T03:43:06.517Z,100447.72
2022-09-04T03:48:23.665Z,100446.03
2022-09-04T03:53:34.193Z,100444.72
2022-09-04T03:58:51.247Z,100447.84
2022-09-04T04:04:21.593Z,100453.41
2022-09-04T04:09:48.550Z,100461.22
2022-09-04T04:15:04.415Z,100458.09
2022-09-04T04:20:31.299Z,100473.44
2022-09-04T04:25:52.333Z,100478.56
2022-09-04T04:31:05.451Z,100485.53
2022-09-04T04:36:15.372Z,100486.41
2022-09-04T04:41:31.749Z,100487.84
2022-09-04T04:46:52.769Z,100495.34
2022-09-04T04:52:16.873Z,100492.94
2022-09-04T04:57:32.841Z,100498.16
2022-09-04T05:02:43.344Z,100506.28
2022-09-04T05:07:54.332Z,100522.66
2022-09-04T05:13:08.986Z,100522.38
2022-09-04T05:18:19.470Z,100527.94
2022-09-04T05:23:33.163Z,100534.56
2022-09-04T05:28:46.507Z,100541.47
2022-09-04T05:33:57.539Z,100546.25
2022-09-04T05:39:10.701Z,100553.81
2022-09-04T05:44:27.918Z,100560.56
2022-09-04T05:49:47.723Z,100553.75
2022-09-04T05:55:21.249Z,100560.06
2022-09-04T06:00:24.432Z,100560.19
2022-09-04T06:05:34.180Z,100545.44
2022-09-04T06:10:53.524Z,100554.91
2022-09-04T06:16:13.972Z,100556.81
2022-09-04T06:21:37.472Z,100567.34
2022-09-04T06:27:05.513Z,100567.38
2022-09-04T06:32:49.319Z,100564.38
2022-09-04T06:38:14.081Z,100565.94
2022-09-04T06:43:29.655Z,100577.88
2022-09-04T06:48:46.878Z,100582.38
2022-09-04T06:54:00.836Z,100582.78
2022-09-04T06:59:24.576Z,100591.94
2022-09-04T07:04:46.824Z,100602.16
2022-09-04T07:09:55.928Z,100602.94
2022-09-04T07:15:40.002Z,100609.25
2022-09-04T07:20:51.741Z,100607.16
2022-09-04T07:26:03.769Z,100605.25
2022-09-04T07:31:13.036Z,100604.69
2022-09-04T07:36:21.020Z,100604.00
2022-09-04T07:41:32.354Z,100616.88
2022-09-04T07:46:47.932Z,100617.41
2022-09-04T07:51:59.476Z,100615.22
2022-09-04T07:57:26.195Z,100621.50
2022-09-04T08:02:46.509Z,100627.88
2022-09-04T08:08:29.354Z,100628.50
2022-09-04T08:13:47.171Z,100628.44
2022-09-04T08:19:18.244Z,100630.94
2022-09-04T08:24:42.641Z,100646.38
2022-09-04T08:30:05.038Z,100649.63
2022-09-04T08:35:22.634Z,100645.31
2022-09-04T08:40:52.430Z,100652.81
2022-09-04T08:46:37.018Z,100654.38
2022-09-04T08:52:06.622Z,100654.06
2022-09-04T08:57:43.007Z,100656.59
2022-09-04T09:03:18.424Z,100658.25
2022-09-04T09:08:57.125Z,100649.22
2022-09-04T09:14:17.968Z,100654.56
2022-09-04T09:19:29.107Z,100658.78
2022-09-04T09:25:16.097Z,100657.06
2022-09-04T09:30:21.080Z,100651.84
2022-09-04T09:36:04.686Z,100651.31
2022-09-04T09:41:35.204Z,100646.88
2022-09-04T09:47:11.165Z,100640.69
2022-09-04T09:52:44.409Z,100643.47
2022-09-04T09:58:19.191Z,100646.47
2022-09-04T10:03:49.807Z,100638.44
2022-09-04T10:09:26.454Z,100644.81
2022-09-04T10:15:10.091Z,100648.78
2022-09-04T10:20:54.287Z,100652.09
2022-09-04T10:26:20.793Z,100641.19
2022-09-04T10:31:49.457Z,100641.44
2022-09-04T10:37:05.941Z,100637.34
2022-09-04T10:42:23.178Z,100637.25
2022-09-04T10:47:48.707Z,100647.41
2022-09-04T10:53:15.470Z,100635.88
2022-09-04T10:58:48.520Z,100642.72
2022-09-04T11:04:13.963Z,100628.56
2022-09-04T11:10:04.317Z,100636.88
2022-09-04T11:15:34.320Z,100629.19
2022-09-04T11:21:21.070Z,100619.91
2022-09-04T11:27:04.806Z,100619.31
2022-09-04T11:32:31.909Z,100624.09
2022-09-04T11:37:59.454Z,100618.75
2022-09-04T11:43:26.439Z,100611.44
2022-09-04T11:49:09.268Z,100611.44
2022-09-04T11:54:31.208Z,100606.09
2022-09-04T11:59:45.369Z,100604.44
2022-09-04T12:05:04.483Z,100615.69
2022-09-04T12:10:27.068Z,100611.50
2022-09-04T12:16:10.223Z,100611.75
2022-09-04T12:21:53.713Z,100609.53
2022-09-04T12:27:27.135Z,100613.09
2022-09-04T12:32:58.952Z,100603.91
2022-09-04T12:38:16.248Z,100604.19
2022-09-04T12:43:42.956Z,100603.25
2022-09-04T12:48:57.846Z,100597.78
2022-09-04T12:54:23.203Z,100611.09
2022-09-04T12:59:45.795Z,100615.94
2022-09-04T13:04:59.773Z,100627.16
2022-09-04T13:10:17.535Z,100632.38
2022-09-04T13:15:30.946Z,100618.94
2022-09-04T13:20:42.485Z,100630.31
2022-09-04T13:25:57.315Z,100629.38
2022-09-04T13:31:28.847Z,100619.41
2022-09-04T13:36:35.978Z,100616.16
2022-09-04T13:41:54.126Z,100621.13
2022-09-04T13:47:08.129Z,100619.28
2022-09-04T13:52:17.675Z,100624.59
2022-09-04T13:57:26.435Z,100624.63
2022-09-04T14:02:31.783Z,100636.28
2022-09-04T14:07:38.863Z,100632.09
2022-09-04T14:13:06.265Z,100638.13
2022-09-04T14:18:37.200Z,100631.69
2022-09-04T14:23:56.022Z,100631.78
2022-09-04T14:29:08.324Z,100626.63
2022-09-04T14:34:23.124Z,100634.03
2022-09-04T14:39:31.591Z,100631.06
2022-09-04T14:44:48.050Z,100631.50
2022-09-04T14:49:55.736Z,100638.81
2022-09-04T14:54:58.806Z,100631.63
2022-09-04T15:00:11.182Z,100636.16
2022-09-04T15:05:23.433Z,100633.19
2022-09-04T15:10:31.576Z,100631.16
2022-09-04T15:15:39.600Z,100630.03
2022-09-04T15:20:53.867Z,100634.09
2022-09-04T15:26:07.182Z,100635.41
2022-09-04T15:31:16.227Z,100635.91
2022-09-04T15:36:24.567Z,100636.66
2022-09-04T15:41:37.933Z,100635.78
2022-09-04T15:46:47.305Z,100631.09
2022-09-04T15:51:56.160Z,100634.78
2022-09-04T15:57:08.419Z,100627.13
2022-09-04T16:02:24.475Z,100630.22
2022-09-04T16:07:40.707Z,100633.56
2022-09-04T16:12:52.117Z,100631.41
2022-09-04T16:17:56.799Z,100627.66
2022-09-04T16:23:04.215Z,100627.97
2022-09-04T16:28:13.186Z,100621.66
2022-09-04T16:33:28.509Z,100632.44
2022-09-04T16:38:47.343Z,100632.53
2022-09-04T16:44:12.120Z,100632.16
2022-09-04T16:49:23.079Z,100633.75
2022-09-04T16:54:35.458Z,100639.22
2022-09-04T16:59:43.338Z,100643.81
2022-09-04T17:04:53.515Z,100648.97
2022-09-04T17:10:03.973Z,100652.38
2022-09-04T17:15:17.266Z,100652.00
2022-09-04T17:20:55.036Z,100654.72
2022-09-04T17:29:15.039Z,100652.97
2022-09-04T17:31:28.567Z,100657.34
2022-09-04T17:40:34.984Z,100657.06
2022-09-04T17:42:10.795Z,100664.09
2022-09-04T17:47:29.881Z,100669.88
2022-09-04T17:52:54.065Z,100669.50
2022-09-04T17:58:04.857Z,100676.03
2022-09-04T18:03:22.495Z,100676.66
2022-09-04T18:08:33.801Z,100680.25
2022-09-04T18:13:45.077Z,100685.91
2022-09-04T18:18:51.886Z,100686.94
2022-09-04T18:24:01.957Z,100701.03
2022-09-04T18:30:11.831Z,100695.31
2022-09-04T18:37:15.972Z,100702.41
2022-09-04T18:40:50.378Z,100707.66
2022-09-04T18:50:52.242Z,100705.03
2022-09-04T18:51:31.027Z,100714.00
2022-09-04T18:56:42.558Z,100715.44
2022-09-04T19:01:57.966Z,100715.81
2022-09-04T19:07:08.169Z,100719.31
2022-09-04T19:12:16.391Z,100725.78
2022-09-04T19:17:25.429Z,100715.81
2022-09-04T19:22:36.149Z,100727.09
2022-09-04T19:27:42.170Z,100736.91
2022-09-04T19:33:02.557Z,100734.75
2022-09-04T19:42:16.945Z,100737.44
2022-09-04T19:46:06.997Z,100744.06
2022-09-04T19:52:10.516Z,100743.53
2022-09-04T19:54:57.802Z,100759.06
2022-09-04T20:00:42.737Z,100753.50
2022-09-04T20:05:53.129Z,100766.31
2022-09-04T20:11:03.922Z,100760.78
2022-09-04T20:16:21.403Z,100766.25
2022-09-04T20:21:27.882Z,100764.84
2022-09-04T20:26:35.005Z,100764.75
2022-09-04T20:31:49.291Z,100764.22
2022-09-04T20:37:00.397Z,100755.94
2022-09-04T20:42:07.363Z,100770.66
2022-09-04T20:52:40.935Z,100767.94
2022-09-04T20:53:09.198Z,100769.88
2022-09-04T21:02:11.125Z,100777.03
2022-09-04T21:04:42.610Z,100790.53
2022-09-04T21:09:58.504Z,100781.00
2022-09-04T21:15:11.253Z,100783.34
2022-09-04T21:20:32.614Z,100786.84
2022-09-04T21:25:50.724Z,100782.97
2022-09-04T21:31:04.434Z,100782.13
2022-09-04T21:36:26.357Z,100788.63
2022-09-04T21:41:55.769Z,100784.56
2022-09-04T21:47:08.378Z,100790.59
2022-09-04T21:52:24.698Z,100791.47
2022-09-04T22:02:27.350Z,100793.91
2022-09-04T22:03:31.529Z,100806.88
2022-09-04T22:13:27.648Z,100807.00
2022-09-04T22:14:20.019Z,100807.38
2022-09-04T22:19:49.029Z,100807.19
2022-09-04T22:25:25.327Z,100797.94
2022-09-04T22:30:34.350Z,100811.72
2022-09-04T22:36:18.606Z,100810.34
2022-09-04T22:41:52.539Z,100802.38
2022-09-04T22:47:28.370Z,100807.00
2022-09-04T22:52:56.258Z,100815.34
2022-09-04T22:58:17.199Z,100813.97
2022-09-04T23:03:41.486Z,100810.19
2022-09-04T23:13:46.475Z,100811.03
2022-09-04T23:14:36.118Z,100811.16
2022-09-04T23:26:32.531Z,100807.81
2022-09-04T23:26:44.143Z,100807.00
2022-09-04T23:31:29.663Z,100808.34
2022-09-04T23:37:06.398Z,100808.84
2022-09-04T23:42:29.466Z,100807.66
2022-09-04T23:47:47.611Z,100809.38
2022-09-04T23:53:12.062Z,100802.22
2022-09-04T23:58:35.749Z,100816.22
